createdAt,value
2023-12-12T00:01:07.173Z,1.90
2023-12-12T00:02:40.112Z,1.80
2023-12-12T00:04:14.209Z,1.67
2023-12-12T00:05:47.209Z,1.67
2023-12-12T00:07:20.633Z,1.55
2023-12-12T00:10:25.431Z,1.70
2023-12-12T00:11:58.434Z,2.15
2023-12-12T00:13:30.564Z,1.95
2023-12-12T00:15:03.658Z,1.90
2023-12-12T00:16:35.724Z,2.47
2023-12-12T00:18:08.899Z,1.70
2023-12-12T00:19:43.822Z,1.40
2023-12-12T00:21:15.881Z,1.73
2023-12-12T00:22:50.166Z,1.67
2023-12-12T00:24:22.198Z,1.90
2023-12-12T00:25:55.314Z,1.40
2023-12-12T00:27:27.584Z,2.40
2023-12-12T00:29:00.674Z,1.38
2023-12-12T00:30:32.695Z,2.03
2023-12-12T00:32:06.298Z,1.55
2023-12-12T00:33:38.292Z,1.92
2023-12-12T00:35:11.359Z,1.60
2023-12-12T00:36:44.343Z,1.50
2023-12-12T00:38:17.670Z,2.55
2023-12-12T00:41:32.341Z,1.90
2023-12-12T00:43:05.407Z,1.60
2023-12-12T00:44:37.920Z,2.22
2023-12-12T00:46:12.326Z,1.80
2023-12-12T00:47:44.824Z,1.98
2023-12-12T00:49:18.339Z,2.00
2023-12-12T00:50:50.386Z,2.10
2023-12-12T00:52:24.982Z,1.85
2023-12-12T00:54:01.044Z,1.63
2023-12-12T00:55:34.231Z,2.42
2023-12-12T00:57:07.218Z,2.65
2023-12-12T00:58:39.735Z,1.80
2023-12-12T01:00:13.607Z,1.60
2023-12-12T01:01:45.791Z,2.00
2023-12-12T01:03:18.804Z,2.00
2023-12-12T01:04:50.998Z,2.10
2023-12-12T01:06:28.781Z,1.80
2023-12-12T01:08:01.559Z,2.15
2023-12-12T01:09:35.802Z,1.80
2023-12-12T01:11:07.866Z,1.65
2023-12-12T01:12:40.842Z,1.73
2023-12-12T01:14:14.088Z,2.15
2023-12-12T01:15:47.064Z,1.70
2023-12-12T01:17:19.451Z,1.80
2023-12-12T01:18:52.564Z,1.50
2023-12-12T01:20:24.663Z,2.08
2023-12-12T01:21:57.680Z,1.50
2023-12-12T01:23:32.320Z,1.75
2023-12-12T01:25:07.836Z,1.63
2023-12-12T01:26:40.742Z,2.50
2023-12-12T01:28:12.778Z,1.98
2023-12-12T01:29:45.706Z,1.90
2023-12-12T01:31:18.584Z,1.92
2023-12-12T01:32:51.737Z,1.77
2023-12-12T01:34:24.071Z,1.90
2023-12-12T01:35:57.091Z,1.60
2023-12-12T01:37:30.292Z,1.80
2023-12-12T01:39:02.674Z,1.42
2023-12-12T01:40:37.045Z,1.90
2023-12-12T01:42:09.079Z,1.67
2023-12-12T01:43:42.112Z,2.67
2023-12-12T01:45:17.167Z,1.60
2023-12-12T01:46:52.376Z,1.70
2023-12-12T01:48:25.881Z,1.63
2023-12-12T01:49:59.365Z,2.28
2023-12-12T01:51:33.273Z,1.80
2023-12-12T01:53:05.313Z,1.45
2023-12-12T01:54:39.915Z,1.92
2023-12-12T01:56:15.085Z,1.80
2023-12-12T01:57:47.070Z,1.73
2023-12-12T01:59:21.970Z,1.65
2023-12-12T02:00:54.502Z,2.17
2023-12-12T02:02:27.709Z,1.95
2023-12-12T02:04:01.804Z,1.63
2023-12-12T02:05:37.745Z,1.73
2023-12-12T02:07:11.938Z,1.58
2023-12-12T02:08:44.032Z,1.90
2023-12-12T02:10:17.285Z,1.77
2023-12-12T02:11:50.880Z,1.65
2023-12-12T02:13:23.960Z,2.10
2023-12-12T02:14:56.956Z,1.65
2023-12-12T02:16:29.035Z,1.98
2023-12-12T02:18:02.148Z,1.40
2023-12-12T02:19:34.647Z,1.85
2023-12-12T02:21:07.980Z,1.58
2023-12-12T02:22:41.343Z,2.05
2023-12-12T02:25:46.079Z,1.95
2023-12-12T02:27:19.648Z,1.80
2023-12-12T02:28:51.770Z,1.90
2023-12-12T02:30:25.354Z,1.90
2023-12-12T02:31:57.289Z,1.80
2023-12-12T02:33:30.473Z,1.80
2023-12-12T02:36:35.638Z,1.60
2023-12-12T02:38:09.035Z,2.28
2023-12-12T02:41:15.654Z,1.65
2023-12-12T02:42:50.045Z,1.80
2023-12-12T02:44:23.132Z,1.50
2023-12-12T02:45:55.113Z,2.05
2023-12-12T02:47:28.211Z,1.60
2023-12-12T02:49:00.445Z,1.88
2023-12-12T02:50:33.787Z,1.83
2023-12-12T02:52:06.012Z,2.03
2023-12-12T02:53:40.358Z,1.52
2023-12-12T02:55:12.403Z,1.85
2023-12-12T02:56:45.476Z,1.60
2023-12-12T02:58:17.482Z,1.90
2023-12-12T02:59:50.524Z,2.20
2023-12-12T03:01:22.524Z,2.15
2023-12-12T03:02:55.578Z,2.38
2023-12-12T03:04:27.666Z,2.10
2023-12-12T03:06:00.704Z,2.10
2023-12-12T03:07:33.298Z,2.20
2023-12-12T03:09:07.963Z,1.65
2023-12-12T03:10:39.937Z,2.17
2023-12-12T03:12:12.967Z,2.55
2023-12-12T03:13:44.927Z,1.70
2023-12-12T03:15:18.021Z,1.70
2023-12-12T03:16:50.068Z,1.65
2023-12-12T03:18:23.075Z,2.22
2023-12-12T03:19:55.185Z,1.63
2023-12-12T03:21:28.206Z,1.95
2023-12-12T03:23:00.307Z,1.92
2023-12-12T03:24:34.669Z,1.77
2023-12-12T03:26:09.402Z,2.13
2023-12-12T03:27:42.579Z,2.13
2023-12-12T03:29:14.621Z,1.85
2023-12-12T03:30:47.662Z,1.98
2023-12-12T03:32:19.672Z,1.85
2023-12-12T03:33:52.690Z,1.83
2023-12-12T03:35:24.780Z,2.03
2023-12-12T03:36:57.852Z,1.93
2023-12-12T03:38:29.806Z,1.70
2023-12-12T03:40:04.998Z,2.15
2023-12-12T03:41:37.097Z,1.80
2023-12-12T03:43:10.105Z,1.97
2023-12-12T03:44:42.177Z,1.70
2023-12-12T03:46:15.571Z,1.77
2023-12-12T03:47:49.153Z,2.00
2023-12-12T03:49:21.202Z,1.80
2023-12-12T03:50:54.265Z,2.00
2023-12-12T03:52:27.374Z,2.10
2023-12-12T03:53:59.413Z,1.60
2023-12-12T03:55:33.759Z,1.90
2023-12-12T03:57:06.891Z,1.80
2023-12-12T03:58:38.874Z,2.33
2023-12-12T04:00:13.306Z,2.00
2023-12-12T04:01:48.551Z,2.27
2023-12-12T04:03:21.655Z,2.13
2023-12-12T04:04:53.637Z,2.10
2023-12-12T04:06:26.572Z,1.73
2023-12-12T04:07:58.602Z,2.42
2023-12-12T04:09:31.698Z,2.50
2023-12-12T04:11:05.318Z,1.95
2023-12-12T04:12:39.592Z,1.90
2023-12-12T04:14:11.539Z,2.30
2023-12-12T04:15:44.571Z,3.20
2023-12-12T04:17:16.610Z,1.60
2023-12-12T04:18:50.822Z,2.00
2023-12-12T04:20:23.809Z,1.90
2023-12-12T04:21:55.888Z,1.90
2023-12-12T04:23:28.894Z,2.17
2023-12-12T04:25:01.980Z,1.98
2023-12-12T04:26:35.401Z,2.25
2023-12-12T04:29:41.303Z,2.05
2023-12-12T04:31:18.243Z,2.60
2023-12-12T04:32:50.407Z,3.07
2023-12-12T04:34:23.351Z,2.10
2023-12-12T04:35:55.428Z,1.85
2023-12-12T04:37:28.725Z,2.00
2023-12-12T04:40:33.655Z,2.20
2023-12-12T04:42:07.551Z,1.65
2023-12-12T04:43:40.539Z,2.00
2023-12-12T04:45:12.521Z,2.28
2023-12-12T04:46:45.596Z,2.60
2023-12-12T04:48:18.496Z,2.30
2023-12-12T04:49:52.250Z,2.78
2023-12-12T04:51:24.386Z,2.27
2023-12-12T04:52:57.375Z,3.13
2023-12-12T04:54:29.365Z,3.03
2023-12-12T04:56:02.438Z,2.80
2023-12-12T04:57:35.727Z,2.72
2023-12-12T05:00:40.673Z,2.27
2023-12-12T05:02:13.792Z,2.13
2023-12-12T05:03:45.948Z,2.30
2023-12-12T05:05:19.524Z,2.80
2023-12-12T05:06:51.584Z,2.40
2023-12-12T05:08:24.650Z,2.53
2023-12-12T05:09:56.819Z,2.85
2023-12-12T05:11:30.652Z,2.63
2023-12-12T05:13:04.240Z,2.83
2023-12-12T05:14:37.563Z,3.00
2023-12-12T05:18:01.872Z,2.37
2023-12-12T05:19:34.425Z,2.30
2023-12-12T05:21:07.675Z,2.58
2023-12-12T05:24:13.283Z,2.30
2023-12-12T05:25:45.534Z,2.65
2023-12-12T05:27:18.573Z,2.03
2023-12-12T05:28:52.512Z,3.28
2023-12-12T05:30:25.633Z,2.77
2023-12-12T05:31:57.659Z,2.70
2023-12-12T05:33:30.832Z,1.97
2023-12-12T05:35:03.886Z,2.50
2023-12-12T05:36:35.891Z,2.28
2023-12-12T05:38:08.885Z,2.13
2023-12-12T05:39:40.909Z,2.20
2023-12-12T05:41:13.858Z,2.80
2023-12-12T05:42:45.855Z,2.38
2023-12-12T05:44:20.223Z,2.17
2023-12-12T05:45:52.209Z,2.17
2023-12-12T05:47:26.189Z,2.97
2023-12-12T05:48:59.369Z,2.20
2023-12-12T05:50:32.513Z,3.08
2023-12-12T05:52:05.561Z,2.60
2023-12-12T05:53:38.649Z,2.60
2023-12-12T05:55:10.810Z,2.40
2023-12-12T05:56:46.295Z,2.43
2023-12-12T05:58:20.087Z,3.17
2023-12-12T05:59:54.554Z,2.50
2023-12-12T06:01:26.651Z,2.87
2023-12-12T06:03:00.454Z,2.87
2023-12-12T06:04:32.576Z,2.83
2023-12-12T06:06:09.175Z,2.90
2023-12-12T06:07:43.814Z,2.53
2023-12-12T06:09:18.162Z,2.07
2023-12-12T06:10:50.296Z,2.27
2023-12-12T06:12:23.355Z,2.77
2023-12-12T06:13:56.629Z,2.45
2023-12-12T06:15:31.253Z,2.03
2023-12-12T06:17:03.899Z,2.73
2023-12-12T06:18:37.089Z,2.33
2023-12-12T06:21:43.207Z,2.83
2023-12-12T06:23:15.405Z,2.70
2023-12-12T06:24:48.398Z,2.60
2023-12-12T06:26:20.468Z,2.75
2023-12-12T06:27:53.656Z,2.70
2023-12-12T06:31:00.393Z,2.40
2023-12-12T06:32:32.645Z,3.30
2023-12-12T06:34:05.898Z,2.30
2023-12-12T06:37:11.652Z,2.30
2023-12-12T06:38:44.927Z,2.50
2023-12-12T06:40:17.057Z,2.33
2023-12-12T06:41:50.044Z,2.20
2023-12-12T06:43:22.095Z,2.47
2023-12-12T06:44:55.112Z,2.80
2023-12-12T06:46:29.879Z,2.45
2023-12-12T06:48:01.875Z,2.80
2023-12-12T06:49:35.010Z,2.50
2023-12-12T06:51:07.624Z,2.63
2023-12-12T06:52:41.929Z,2.55
2023-12-12T06:54:14.026Z,3.23
2023-12-12T06:55:48.883Z,2.40
2023-12-12T06:57:21.908Z,3.60
2023-12-12T06:58:53.931Z,2.25
2023-12-12T07:00:26.898Z,2.40
2023-12-12T07:02:00.455Z,3.00
2023-12-12T07:03:34.147Z,2.80
2023-12-12T07:05:06.688Z,2.80
2023-12-12T07:06:39.774Z,3.10
2023-12-12T07:08:11.858Z,2.65
2023-12-12T07:09:44.825Z,2.38
2023-12-12T07:11:18.120Z,2.85
2023-12-12T07:14:22.866Z,2.50
2023-12-12T07:15:54.887Z,2.47
2023-12-12T07:17:29.949Z,2.50
2023-12-12T07:19:02.329Z,2.40
2023-12-12T07:20:35.327Z,2.67
2023-12-12T07:22:09.280Z,2.42
2023-12-12T07:23:42.286Z,2.43
2023-12-12T07:25:14.449Z,2.50
2023-12-12T07:26:47.846Z,2.80
2023-12-12T07:28:22.136Z,2.50
2023-12-12T07:29:54.233Z,2.90
2023-12-12T07:31:27.241Z,3.20
2023-12-12T07:33:01.704Z,2.33
2023-12-12T07:34:33.835Z,2.53
2023-12-12T07:36:07.700Z,2.13
2023-12-12T07:37:40.745Z,2.55
2023-12-12T07:39:13.669Z,2.90
2023-12-12T07:40:45.824Z,2.53
2023-12-12T07:42:18.865Z,2.35
2023-12-12T07:43:50.949Z,3.05
2023-12-12T07:45:24.010Z,2.70
2023-12-12T07:46:56.049Z,2.97
2023-12-12T07:48:30.522Z,2.90
2023-12-12T07:50:06.323Z,3.20
2023-12-12T07:51:39.400Z,2.93
2023-12-12T07:53:11.877Z,2.75
2023-12-12T07:54:45.521Z,4.07
2023-12-12T07:56:17.605Z,6.27
2023-12-12T07:57:50.588Z,7.00
2023-12-12T07:59:22.634Z,4.50
2023-12-12T08:00:55.665Z,3.37
2023-12-12T08:02:28.712Z,3.33
2023-12-12T08:04:02.283Z,2.40
2023-12-12T08:05:38.706Z,3.20
2023-12-12T08:07:10.808Z,3.37
2023-12-12T08:08:43.918Z,3.27
2023-12-12T08:10:16.199Z,3.35
2023-12-12T08:11:49.241Z,3.53
2023-12-12T08:13:21.335Z,3.55
2023-12-12T08:14:55.018Z,3.38
2023-12-12T08:16:27.189Z,3.30
2023-12-12T08:18:00.417Z,3.10
2023-12-12T08:19:34.051Z,3.13
2023-12-12T08:21:07.807Z,4.05
2023-12-12T08:22:40.082Z,3.10
2023-12-12T08:24:13.643Z,3.40
2023-12-12T08:25:46.232Z,2.63
2023-12-12T08:27:20.069Z,2.67
2023-12-12T08:28:52.190Z,2.97
2023-12-12T08:30:25.267Z,2.60
2023-12-12T08:31:57.858Z,2.45
2023-12-12T08:33:30.956Z,2.22
2023-12-12T08:35:08.044Z,2.13
2023-12-12T08:36:41.397Z,2.45
2023-12-12T08:38:13.502Z,1.98
2023-12-12T08:39:46.444Z,2.08
2023-12-12T08:41:18.444Z,2.28
2023-12-12T08:42:51.434Z,2.10
2023-12-12T08:44:23.525Z,2.45
2023-12-12T08:45:57.682Z,2.40
2023-12-12T08:47:30.422Z,2.20
2023-12-12T08:49:03.663Z,2.70
2023-12-12T08:50:37.081Z,2.75
2023-12-12T08:52:11.819Z,2.67
2023-12-12T08:53:43.804Z,2.47
2023-12-12T08:55:17.058Z,2.60
2023-12-12T08:58:27.398Z,2.57
2023-12-12T09:01:32.337Z,2.30
2023-12-12T09:03:04.514Z,2.10
2023-12-12T09:04:38.998Z,2.60
2023-12-12T09:06:13.658Z,2.63
2023-12-12T09:07:46.837Z,4.03
2023-12-12T09:09:18.909Z,2.60
2023-12-12T09:10:52.021Z,3.17
2023-12-12T09:12:24.034Z,2.97
2023-12-12T09:13:56.961Z,2.60
2023-12-12T09:15:28.886Z,2.65
2023-12-12T09:17:01.803Z,2.27
2023-12-12T09:18:33.873Z,2.53
2023-12-12T09:20:08.119Z,1.90
2023-12-12T09:21:42.036Z,2.30
2023-12-12T09:23:15.071Z,2.70
2023-12-12T09:24:47.084Z,2.50
2023-12-12T09:26:20.878Z,2.05
2023-12-12T09:27:53.194Z,2.05
2023-12-12T09:29:26.640Z,3.23
2023-12-12T09:32:31.835Z,2.15
2023-12-12T09:34:11.560Z,2.20
2023-12-12T09:35:43.645Z,2.40
2023-12-12T09:37:18.294Z,2.55
2023-12-12T09:38:50.314Z,2.30
2023-12-12T09:40:23.301Z,2.10
2023-12-12T09:41:57.630Z,1.95
2023-12-12T09:43:29.993Z,1.85
2023-12-12T09:45:06.114Z,2.70
2023-12-12T09:46:39.551Z,2.28
2023-12-12T09:48:11.717Z,2.60
2023-12-12T09:49:45.180Z,2.38
2023-12-12T09:51:17.229Z,2.53
2023-12-12T09:52:52.967Z,2.58
2023-12-12T09:54:26.584Z,2.30
2023-12-12T09:56:01.002Z,2.10
2023-12-12T09:57:35.395Z,2.40
2023-12-12T09:59:07.785Z,2.08
2023-12-12T10:01:02.392Z,2.08
2023-12-12T10:02:36.795Z,2.60
2023-12-12T10:04:12.202Z,2.13
2023-12-12T10:05:52.234Z,1.85
2023-12-12T10:07:27.467Z,2.20
2023-12-12T10:09:01.350Z,2.35
2023-12-12T10:10:34.352Z,1.88
2023-12-12T10:12:07.173Z,2.15
2023-12-12T10:13:51.855Z,1.90
2023-12-12T10:15:25.463Z,2.80
2023-12-12T10:17:05.755Z,2.08
2023-12-12T10:18:37.837Z,1.85
2023-12-12T10:20:11.957Z,1.88
2023-12-12T10:21:44.008Z,1.65
2023-12-12T10:23:17.172Z,1.80
2023-12-12T10:24:54.150Z,1.92
2023-12-12T10:26:30.915Z,2.35
2023-12-12T10:28:04.788Z,1.83
2023-12-12T10:29:39.131Z,1.95
2023-12-12T10:31:13.012Z,1.75
2023-12-12T10:32:45.482Z,1.80
2023-12-12T10:34:21.350Z,2.10
2023-12-12T10:35:53.795Z,2.10
2023-12-12T10:37:27.596Z,1.83
2023-12-12T10:39:12.035Z,2.00
2023-12-12T10:40:46.501Z,2.50
2023-12-12T10:42:18.812Z,1.70
2023-12-12T10:43:51.735Z,1.85
2023-12-12T10:45:25.585Z,2.10
2023-12-12T10:47:02.436Z,2.13
2023-12-12T10:48:37.176Z,2.30
2023-12-12T10:50:15.341Z,2.85
2023-12-12T10:51:47.578Z,2.53
2023-12-12T10:53:22.612Z,2.53
2023-12-12T10:54:58.606Z,2.20
2023-12-12T10:56:36.838Z,2.13
2023-12-12T10:58:10.719Z,1.88
2023-12-12T10:59:59.088Z,2.13
2023-12-12T11:01:35.313Z,2.50
2023-12-12T11:03:08.653Z,2.00
2023-12-12T11:06:13.794Z,2.03
2023-12-12T11:07:47.953Z,2.85
2023-12-12T11:09:21.500Z,2.22
2023-12-12T11:10:54.323Z,2.25
2023-12-12T11:12:30.175Z,1.90
2023-12-12T11:14:02.965Z,2.33
2023-12-12T11:15:38.918Z,2.47
2023-12-12T11:17:11.348Z,2.00
2023-12-12T11:18:45.934Z,2.10
2023-12-12T11:20:19.401Z,2.05
2023-12-12T11:21:52.581Z,2.10
2023-12-12T11:23:56.222Z,2.42
2023-12-12T11:25:37.572Z,2.10
2023-12-12T11:27:15.899Z,2.00
2023-12-12T11:29:12.034Z,2.20
2023-12-12T11:30:50.927Z,2.00
2023-12-12T11:32:27.283Z,2.70
2023-12-12T11:34:11.195Z,2.17
2023-12-12T11:35:48.217Z,2.50
2023-12-12T11:37:20.316Z,2.95
2023-12-12T11:38:56.847Z,2.30
2023-12-12T11:40:29.059Z,2.20
2023-12-12T11:42:05.285Z,2.53
2023-12-12T11:43:37.584Z,2.65
2023-12-12T11:45:12.147Z,2.67
2023-12-12T11:46:44.217Z,2.60
2023-12-12T11:48:18.360Z,2.60
2023-12-12T11:49:50.925Z,2.50
2023-12-12T11:51:47.617Z,2.50
2023-12-12T11:53:41.121Z,2.60
2023-12-12T11:55:24.642Z,2.22
2023-12-12T11:57:01.843Z,2.35
2023-12-12T11:58:40.229Z,2.17
2023-12-12T12:00:30.108Z,2.30
2023-12-12T12:02:23.946Z,2.35
2023-12-12T12:04:12.657Z,2.88
2023-12-12T12:05:58.287Z,2.50
2023-12-12T12:07:41.553Z,2.40
2023-12-12T12:09:16.992Z,3.08
2023-12-12T12:10:56.306Z,2.65
2023-12-12T12:12:29.418Z,2.60
2023-12-12T12:15:35.972Z,2.38
2023-12-12T12:17:07.986Z,2.25
2023-12-12T12:18:41.132Z,3.00
2023-12-12T12:20:13.290Z,3.40
2023-12-12T12:21:46.308Z,2.40
2023-12-12T12:23:19.872Z,2.90
2023-12-12T12:24:53.326Z,2.67
2023-12-12T12:26:27.547Z,3.15
2023-12-12T12:28:00.020Z,2.65
2023-12-12T12:29:33.036Z,3.05
2023-12-12T12:31:08.120Z,2.75
2023-12-12T12:32:40.450Z,3.10
2023-12-12T12:34:20.264Z,3.35
2023-12-12T12:35:53.763Z,2.60
2023-12-12T12:37:32.346Z,2.72
2023-12-12T12:39:06.028Z,3.25
2023-12-12T12:40:40.370Z,2.97
2023-12-12T12:42:12.453Z,2.88
2023-12-12T12:43:53.516Z,3.17
2023-12-12T12:45:25.678Z,3.08
2023-12-12T12:46:59.975Z,3.22
2023-12-12T12:48:34.682Z,3.92
2023-12-12T12:50:08.569Z,4.00
2023-12-12T12:51:41.518Z,4.00
2023-12-12T12:53:14.872Z,3.35
2023-12-12T12:56:20.414Z,3.08
2023-12-12T12:57:52.430Z,3.00
2023-12-12T12:59:25.360Z,3.35
2023-12-12T13:00:57.393Z,3.22
2023-12-12T13:02:31.911Z,3.28
2023-12-12T13:04:04.108Z,3.13
2023-12-12T13:05:37.158Z,3.67
2023-12-12T13:07:09.336Z,3.70
2023-12-12T13:08:42.326Z,3.47
2023-12-12T13:10:16.556Z,3.72
2023-12-12T13:11:49.616Z,3.33
2023-12-12T13:13:22.814Z,3.50
2023-12-12T13:16:28.286Z,3.72
2023-12-12T13:19:34.564Z,3.40
2023-12-12T13:21:07.986Z,3.63
2023-12-12T13:24:13.922Z,3.33
2023-12-12T13:25:47.115Z,3.42
2023-12-12T13:27:20.529Z,3.60
2023-12-12T13:30:27.226Z,3.33
2023-12-12T13:33:34.933Z,4.00
2023-12-12T13:35:18.232Z,3.40
2023-12-12T13:37:00.372Z,3.03
2023-12-12T13:38:32.643Z,3.75
2023-12-12T13:40:07.370Z,4.05
2023-12-12T13:41:39.681Z,3.50
2023-12-12T13:43:12.734Z,3.40
2023-12-12T13:44:44.682Z,3.05
2023-12-12T13:46:17.709Z,4.43
2023-12-12T13:47:50.153Z,3.53
2023-12-12T13:49:24.672Z,3.30
2023-12-12T13:50:56.623Z,3.30
2023-12-12T13:52:30.660Z,4.00
2023-12-12T13:54:03.681Z,3.70
2023-12-12T13:55:35.754Z,3.70
2023-12-12T13:57:10.761Z,3.75
2023-12-12T13:58:54.410Z,3.97
2023-12-12T14:00:33.595Z,3.88
2023-12-12T14:02:08.611Z,3.40
2023-12-12T14:03:40.803Z,3.38
2023-12-12T14:05:15.383Z,4.70
2023-12-12T14:06:48.334Z,4.75
2023-12-12T14:08:20.293Z,4.13
2023-12-12T14:09:53.260Z,4.15
2023-12-12T14:11:26.356Z,3.97
2023-12-12T14:14:34.460Z,3.58
2023-12-12T14:16:08.447Z,3.97
2023-12-12T14:17:41.958Z,3.80
2023-12-12T14:19:14.324Z,3.58
2023-12-12T14:20:48.775Z,4.15
2023-12-12T14:22:20.804Z,3.85
2023-12-12T14:23:53.873Z,3.92
2023-12-12T14:25:25.976Z,4.05
2023-12-12T14:26:58.965Z,3.80
2023-12-12T14:28:33.712Z,3.60
2023-12-12T14:30:08.110Z,3.60
2023-12-12T14:31:40.216Z,4.10
2023-12-12T14:33:13.378Z,3.80
2023-12-12T14:34:45.769Z,3.22
2023-12-12T14:36:20.256Z,3.15
2023-12-12T14:37:52.475Z,3.50
2023-12-12T14:39:25.380Z,3.45
2023-12-12T14:40:57.417Z,3.40
2023-12-12T14:42:30.845Z,3.30
2023-12-12T14:44:02.909Z,3.88
2023-12-12T14:45:35.902Z,3.50
2023-12-12T14:47:07.997Z,4.30
2023-12-12T14:48:41.025Z,3.72
2023-12-12T14:50:13.099Z,3.85
2023-12-12T14:51:47.543Z,4.38
2023-12-12T14:53:19.541Z,3.60
2023-12-12T14:54:52.562Z,3.53
2023-12-12T14:56:24.588Z,2.78
2023-12-12T14:57:57.622Z,3.20
2023-12-12T14:59:29.755Z,3.35
2023-12-12T15:01:02.875Z,3.08
2023-12-12T15:02:35.237Z,2.88
2023-12-12T15:04:08.697Z,2.95
2023-12-12T15:05:41.052Z,2.50
2023-12-12T15:07:15.795Z,2.90
2023-12-12T15:08:47.867Z,2.83
2023-12-12T15:10:21.061Z,2.80
2023-12-12T15:13:26.040Z,2.92
2023-12-12T15:15:00.211Z,3.72
2023-12-12T15:16:33.619Z,3.40
2023-12-12T15:18:05.984Z,2.95
2023-12-12T15:19:39.168Z,2.65
2023-12-12T15:21:14.580Z,2.80
2023-12-12T15:22:49.203Z,2.95
2023-12-12T15:24:22.360Z,2.88
2023-12-12T15:25:54.387Z,2.92
2023-12-12T15:27:27.334Z,3.00
2023-12-12T15:29:01.937Z,3.30
2023-12-12T15:30:35.227Z,3.10
2023-12-12T15:35:38.203Z,3.50
2023-12-12T15:37:11.264Z,3.03
2023-12-12T15:38:45.607Z,2.85
2023-12-12T15:40:17.954Z,2.95
2023-12-12T15:41:51.037Z,3.50
2023-12-12T15:43:23.137Z,3.28
2023-12-12T15:44:56.410Z,3.15
2023-12-12T15:48:01.339Z,2.80
2023-12-12T15:49:36.438Z,3.30
2023-12-12T15:51:09.778Z,3.08
2023-12-12T15:52:42.134Z,3.25
2023-12-12T15:54:17.051Z,3.22
2023-12-12T15:55:49.188Z,3.10
2023-12-12T15:57:22.266Z,3.40
2023-12-12T15:58:54.467Z,3.20
2023-12-12T16:00:27.776Z,3.38
2023-12-12T16:04:23.436Z,3.90
2023-12-12T16:12:24.633Z,3.95
2023-12-12T16:13:58.021Z,5.45
2023-12-12T16:15:30.991Z,4.18
2023-12-12T16:17:03.850Z,3.85
2023-12-12T16:18:37.600Z,5.20
2023-12-12T16:20:10.492Z,4.18
2023-12-12T16:21:44.261Z,4.45
2023-12-12T16:23:17.313Z,5.40
2023-12-12T16:24:49.244Z,4.57
2023-12-12T16:26:22.202Z,5.10
2023-12-12T16:27:55.028Z,5.00
2023-12-12T16:29:29.458Z,4.40
2023-12-12T16:31:02.575Z,4.72
2023-12-12T16:32:34.833Z,4.72
2023-12-12T16:34:09.921Z,4.82
2023-12-12T16:35:42.041Z,4.80
2023-12-12T16:37:15.512Z,5.22
2023-12-12T16:38:47.794Z,4.93
2023-12-12T16:40:20.880Z,4.53
2023-12-12T16:41:53.016Z,4.05
2023-12-12T16:43:26.041Z,4.50
2023-12-12T16:44:59.838Z,4.35
2023-12-12T16:46:32.957Z,4.38
2023-12-12T16:48:05.567Z,4.97
2023-12-12T16:49:38.989Z,4.68
2023-12-12T16:51:11.085Z,4.60
2023-12-12T16:52:44.151Z,4.20
2023-12-12T16:54:16.128Z,3.90
2023-12-12T16:55:49.113Z,4.75
2023-12-12T16:57:21.855Z,4.43
2023-12-12T16:58:54.883Z,4.60
2023-12-12T17:00:30.743Z,4.78
2023-12-12T17:02:04.910Z,4.85
2023-12-12T17:03:37.129Z,4.55
2023-12-12T17:05:11.230Z,4.22
2023-12-12T17:06:43.313Z,4.60
2023-12-12T17:08:16.420Z,4.55
2023-12-12T17:09:48.425Z,5.07
2023-12-12T17:11:21.400Z,4.90
2023-12-12T17:12:53.303Z,5.05
2023-12-12T17:14:26.328Z,4.88
2023-12-12T17:15:59.778Z,4.90
2023-12-12T17:17:32.975Z,4.80
2023-12-12T17:20:38.223Z,4.80
2023-12-12T17:22:11.500Z,4.72
2023-12-12T17:25:16.547Z,5.13
2023-12-12T17:26:49.866Z,5.03
2023-12-12T17:29:55.380Z,5.20
2023-12-12T17:31:29.830Z,5.00
2023-12-12T17:33:01.900Z,4.85
2023-12-12T17:34:34.999Z,5.03
2023-12-12T17:36:08.674Z,5.20
2023-12-12T17:37:42.499Z,5.70
2023-12-12T17:39:16.012Z,5.72
2023-12-12T17:40:49.540Z,5.55
2023-12-12T17:42:21.495Z,5.88
2023-12-12T17:43:54.532Z,5.47
2023-12-12T17:45:27.555Z,5.57
2023-12-12T17:47:01.010Z,5.75
2023-12-12T17:48:34.002Z,5.97
2023-12-12T17:50:07.448Z,6.03
2023-12-12T17:51:40.600Z,6.00
2023-12-12T17:53:15.275Z,5.60
2023-12-12T17:54:48.486Z,6.07
2023-12-12T17:56:21.235Z,5.80
2023-12-12T17:57:54.222Z,8.45
2023-12-12T17:59:26.249Z,5.93
2023-12-12T18:00:59.241Z,5.32
2023-12-12T18:02:32.726Z,6.07
2023-12-12T18:04:06.316Z,5.50
2023-12-12T18:05:43.015Z,5.53
2023-12-12T18:07:16.446Z,5.72
2023-12-12T18:08:48.858Z,5.22
2023-12-12T18:10:21.942Z,5.93
2023-12-12T18:11:53.967Z,5.88
2023-12-12T18:13:26.982Z,5.22
2023-12-12T18:14:59.042Z,7.97
2023-12-12T18:16:32.140Z,6.05
2023-12-12T18:18:09.292Z,5.38
2023-12-12T18:19:42.371Z,5.43
2023-12-12T18:21:17.694Z,5.88
2023-12-12T18:22:52.359Z,5.07
2023-12-12T18:24:24.371Z,5.38
2023-12-12T18:25:58.539Z,5.25
2023-12-12T18:27:31.371Z,6.03
2023-12-12T18:29:06.079Z,5.75
2023-12-12T18:30:44.635Z,5.38
2023-12-12T18:32:16.904Z,5.65
2023-12-12T18:33:51.411Z,5.60
2023-12-12T18:35:23.446Z,5.40
2023-12-12T18:36:56.398Z,5.53
2023-12-12T18:38:28.539Z,5.55
2023-12-12T18:40:01.995Z,5.60
2023-12-12T18:41:34.533Z,5.80
2023-12-12T18:43:07.659Z,6.18
2023-12-12T18:44:39.858Z,5.63
2023-12-12T18:46:13.334Z,5.85
2023-12-12T18:47:45.456Z,5.88
2023-12-12T18:49:20.061Z,6.10
2023-12-12T18:50:52.047Z,6.05
2023-12-12T18:52:25.105Z,5.72
2023-12-12T18:53:57.142Z,6.22
2023-12-12T18:55:30.533Z,5.80
2023-12-12T18:57:03.036Z,6.40
2023-12-12T18:58:36.830Z,6.20
2023-12-12T19:00:11.729Z,5.95
2023-12-12T19:01:51.252Z,5.72
2023-12-12T19:03:26.341Z,5.67
2023-12-12T19:04:59.831Z,6.07
2023-12-12T19:06:33.048Z,6.67
2023-12-12T19:12:52.616Z,6.30
2023-12-12T19:14:24.644Z,7.13
2023-12-12T19:15:58.081Z,5.97
2023-12-12T19:17:30.757Z,7.18
2023-12-12T19:19:04.190Z,6.68
2023-12-12T19:22:10.804Z,6.07
2023-12-12T19:25:16.178Z,6.15
2023-12-12T19:26:48.228Z,6.10
2023-12-12T19:28:21.185Z,6.45
2023-12-12T19:29:53.182Z,5.95
2023-12-12T19:31:26.233Z,6.50
2023-12-12T19:32:58.239Z,6.22
2023-12-12T19:34:31.286Z,5.97
2023-12-12T19:36:05.539Z,6.40
2023-12-12T19:37:39.984Z,5.97
2023-12-12T19:39:12.796Z,6.33
2023-12-12T19:40:45.893Z,6.88
2023-12-12T19:42:18.065Z,5.88
2023-12-12T19:43:51.093Z,6.10
2023-12-12T19:45:24.772Z,6.88
2023-12-12T19:46:58.350Z,6.37
2023-12-12T19:48:30.421Z,6.55
2023-12-12T19:50:05.812Z,6.33
2023-12-12T19:51:46.861Z,5.63
2023-12-12T19:53:18.863Z,5.55
2023-12-12T19:54:52.494Z,6.27
2023-12-12T19:56:24.566Z,5.93
2023-12-12T19:57:57.463Z,5.45
2023-12-12T19:59:29.717Z,5.32
2023-12-12T20:01:02.708Z,5.82
2023-12-12T20:02:34.933Z,6.57
2023-12-12T20:04:09.696Z,6.53
2023-12-12T20:05:42.668Z,6.55
2023-12-12T20:07:16.113Z,6.00
2023-12-12T20:08:49.066Z,5.95
2023-12-12T20:10:21.937Z,6.30
2023-12-12T20:11:54.994Z,6.38
2023-12-12T20:13:28.074Z,6.28
2023-12-12T20:15:00.303Z,7.18
2023-12-12T20:16:33.358Z,6.40
2023-12-12T20:18:05.567Z,6.53
2023-12-12T20:19:38.819Z,6.40
2023-12-12T20:22:53.380Z,6.37
2023-12-12T20:24:26.524Z,6.33
2023-12-12T20:25:59.614Z,6.00
2023-12-12T20:27:35.565Z,6.10
2023-12-12T20:29:08.868Z,5.70
2023-12-12T20:32:15.317Z,6.50
2023-12-12T20:33:48.371Z,6.90
2023-12-12T20:35:20.329Z,7.18
2023-12-12T20:36:53.256Z,7.07
2023-12-12T20:38:26.591Z,7.60
2023-12-12T20:41:34.779Z,7.07
2023-12-12T20:43:09.890Z,7.43
2023-12-12T20:44:41.912Z,7.00
2023-12-12T20:46:15.031Z,6.78
2023-12-12T20:47:47.599Z,7.22
2023-12-12T20:49:21.032Z,7.15
2023-12-12T20:50:55.359Z,6.67
2023-12-12T20:52:27.767Z,6.97
2023-12-12T20:54:02.133Z,7.43
2023-12-12T20:55:35.961Z,7.10
2023-12-12T20:57:13.367Z,7.60
2023-12-12T20:58:46.397Z,7.53
2023-12-12T21:00:20.368Z,7.43
2023-12-12T21:01:52.343Z,6.20
2023-12-12T21:03:25.468Z,6.55
2023-12-12T21:04:57.513Z,6.70
2023-12-12T21:06:30.511Z,6.97
2023-12-12T21:08:02.553Z,6.88
2023-12-12T21:09:36.982Z,6.40
2023-12-12T21:11:12.830Z,7.77
2023-12-12T21:12:46.028Z,7.23
2023-12-12T21:14:18.036Z,6.90
2023-12-12T21:15:51.057Z,7.03
2023-12-12T21:17:23.011Z,6.55
2023-12-12T21:18:55.957Z,6.68
2023-12-12T21:20:27.964Z,6.90
2023-12-12T21:22:00.945Z,6.27
2023-12-12T21:23:33.242Z,6.45
2023-12-12T21:25:09.494Z,6.40
2023-12-12T21:26:41.913Z,6.45
2023-12-12T21:28:14.883Z,6.15
2023-12-12T21:29:46.884Z,6.57
2023-12-12T21:31:19.836Z,6.20
2023-12-12T21:32:51.896Z,6.50
2023-12-12T21:34:24.991Z,6.20
2023-12-12T21:35:57.011Z,6.50
2023-12-12T21:37:30.679Z,6.83
2023-12-12T21:39:05.394Z,6.65
2023-12-12T21:40:39.862Z,6.60
2023-12-12T21:42:13.536Z,6.43
2023-12-12T21:43:47.002Z,6.40
2023-12-12T21:45:19.950Z,6.13
2023-12-12T21:48:25.378Z,6.00
2023-12-12T21:49:58.444Z,6.03
2023-12-12T21:51:31.454Z,6.97
2023-12-12T21:53:03.433Z,6.50
2023-12-12T21:54:36.528Z,6.78
2023-12-12T21:56:18.087Z,6.65
2023-12-12T21:57:50.988Z,5.75
2023-12-12T21:59:23.181Z,6.53
2023-12-12T22:00:56.312Z,6.43
2023-12-12T22:02:30.030Z,6.88